Time;durP1;ratioP1;P1;durP2;ratioP2;P2;SDS_P1;SDS_P2;PMS_P1;PMS_P2;Temp;Humidity;BMP_temperature;BMP_pressure;BME280_temperature;BME280_humidity;BME280_pressure;Samples;Min_cycle;Max_cycle;Signal;HPM_P1;HPM_P2
2021/12/07 00:00:57;;;;;;;31.67;17.83;;;3.20;99.90;;;;;;4976194;28;20580;-73
2021/12/07 00:03:23;;;;;;;28.88;16.80;;;3.20;99.90;;;;;;4977251;28;20353;-73
2021/12/07 00:05:50;;;;;;;24.80;14.60;;;3.20;99.90;;;;;;4977224;28;20030;-74
2021/12/07 00:08:17;;;;;;;28.08;15.35;;;3.10;99.90;;;;;;4976675;28;20027;-73
2021/12/07 00:10:43;;;;;;;29.20;17.13;;;3.10;99.90;;;;;;4986797;28;20054;-73
2021/12/07 00:13:10;;;;;;;26.75;15.13;;;3.10;99.90;;;;;;4964545;28;20039;-72
2021/12/07 00:15:37;;;;;;;27.20;15.25;;;3.10;99.90;;;;;;4957772;28;20401;-68
2021/12/07 00:18:04;;;;;;;28.17;16.15;;;3.00;99.90;;;;;;4957127;28;20489;-71
2021/12/07 00:20:31;;;;;;;30.92;18.88;;;3.00;99.90;;;;;;4958161;28;20370;-71
2021/12/07 00:23:00;;;;;;;30.25;16.88;;;3.00;99.90;;;;;;4958515;28;20070;-71
2021/12/07 00:25:27;;;;;;;29.33;17.40;;;3.00;99.90;;;;;;4982039;28;20022;-70
2021/12/07 00:27:53;;;;;;;29.55;17.23;;;3.00;99.90;;;;;;4977734;28;20027;-69
2021/12/07 00:30:20;;;;;;;29.25;17.45;;;2.90;99.90;;;;;;4975503;28;20089;-69
2021/12/07 00:32:56;;;;;;;29.63;16.27;;;2.90;99.90;;;;;;4975120;28;20400;-72
2021/12/07 00:37:56;;;;;;;27.67;16.05;;;2.80;99.90;;;;;;4973496;28;20031;-72
2021/12/07 00:40:24;;;;;;;26.23;16.17;;;2.80;99.90;;;;;;4974025;28;20086;-72
2021/12/07 00:42:50;;;;;;;29.52;17.38;;;2.70;99.90;;;;;;4978376;28;20022;-73
2021/12/07 00:45:19;;;;;;;30.45;17.25;;;2.70;99.90;;;;;;4973464;28;20059;-74
2021/12/07 00:47:48;;;;;;;33.50;17.90;;;2.70;99.90;;;;;;4975895;28;20059;-73
2021/12/07 00:50:14;;;;;;;27.48;17.42;;;2.70;99.90;;;;;;4974549;28;20042;-73
2021/12/07 00:52:40;;;;;;;29.23;16.40;;;2.60;99.90;;;;;;4973901;28;20061;-73
2021/12/07 00:55:10;;;;;;;33.17;19.38;;;2.70;99.90;;;;;;4975419;28;20041;-73
2021/12/07 00:57:37;;;;;;;26.45;15.25;;;2.60;99.90;;;;;;4974286;28;20034;-70
2021/12/07 01:00:13;;;;;;;33.95;18.92;;;2.60;99.90;;;;;;4976114;28;20361;-72
2021/12/07 01:02:39;;;;;;;28.27;16.67;;;2.60;99.90;;;;;;4973895;28;20031;-74
2021/12/07 01:05:16;;;;;;;29.63;17.23;;;2.60;99.90;;;;;;4973947;28;20031;-73
2021/12/07 01:26:45;;;;;;;31.92;17.92;;;2.30;99.90;;;;;;4973920;28;20150;-74
2021/12/07 01:29:11;;;;;;;30.25;19.20;;;2.30;99.90;;;;;;4972589;28;20041;-70
2021/12/07 01:32:15;;;;;;;35.20;20.75;;;2.30;99.90;;;;;;4973786;28;20128;-75
2021/12/07 01:45:16;;;;;;;31.25;18.63;;;2.10;99.90;;;;;;4972971;28;20037;-75
2021/12/07 02:00:50;;;;;;;32.65;20.25;;;2.10;99.90;;;;;;4896834;29;20033;-73
2021/12/07 02:03:17;;;;;;;33.13;20.35;;;2.10;99.90;;;;;;4913115;29;20039;-74
2021/12/07 02:05:44;;;;;;;33.70;21.67;;;2.10;99.90;;;;;;4897219;29;20514;-74
2021/12/07 02:08:10;;;;;;;38.42;21.90;;;2.10;99.90;;;;;;4913029;29;20040;-73
2021/12/07 02:10:37;;;;;;;41.40;22.40;;;2.10;99.90;;;;;;4912583;29;20047;-69
2021/12/07 02:13:19;;;;;;;34.55;21.55;;;2.00;99.90;;;;;;4900662;29;20119;-74
2021/12/07 02:15:46;;;;;;;36.45;22.27;;;2.00;99.90;;;;;;4907957;29;20036;-70
2021/12/07 02:18:12;;;;;;;34.28;20.48;;;2.00;99.90;;;;;;4912790;29;20075;-74
2021/12/07 02:20:39;;;;;;;38.53;21.15;;;2.00;99.90;;;;;;4898893;29;20037;-72
2021/12/07 02:23:05;;;;;;;39.47;23.23;;;2.00;99.90;;;;;;4894913;29;20423;-75
2021/12/07 02:25:32;;;;;;;35.35;21.33;;;1.90;99.90;;;;;;4893269;29;20124;-70
2021/12/07 02:27:59;;;;;;;32.55;19.55;;;1.90;99.90;;;;;;4912731;29;20071;-72
2021/12/07 02:30:26;;;;;;;35.15;20.73;;;2.00;99.90;;;;;;4898126;29;20028;-74
2021/12/07 02:32:54;;;;;;;31.35;19.25;;;1.90;99.90;;;;;;4913341;29;20048;-74
2021/12/07 02:35:25;;;;;;;32.83;20.30;;;1.90;99.90;;;;;;4928139;28;20118;-73
2021/12/07 02:37:57;;;;;;;36.92;21.13;;;1.90;99.90;;;;;;4987185;28;20626;-73
2021/12/07 02:40:25;;;;;;;30.90;19.05;;;1.80;99.90;;;;;;4971593;28;20539;-69
2021/12/07 02:42:51;;;;;;;30.92;18.80;;;1.80;99.90;;;;;;4972903;28;20022;-73
2021/12/07 02:45:20;;;;;;;33.63;19.60;;;1.80;99.90;;;;;;4971511;28;20031;-74
2021/12/07 02:47:46;;;;;;;32.53;20.55;;;1.80;99.90;;;;;;4972838;28;20023;-73
2021/12/07 02:50:16;;;;;;;32.70;19.63;;;1.80;99.90;;;;;;4987148;28;20023;-72
2021/12/07 02:52:43;;;;;;;32.67;19.40;;;1.80;99.90;;;;;;4972424;28;20051;-75
2021/12/07 02:55:10;;;;;;;31.45;19.42;;;1.80;99.90;;;;;;4973403;28;20038;-73
2021/12/07 02:57:36;;;;;;;32.10;19.52;;;1.70;99.90;;;;;;4975378;28;20100;-76
2021/12/07 03:00:13;;;;;;;35.55;20.83;;;1.80;99.90;;;;;;4974891;28;20023;-73
2021/12/07 03:02:46;;;;;;;35.13;21.25;;;1.70;99.90;;;;;;4975066;28;20030;-71
2021/12/07 03:27:23;;;;;;;34.63;19.75;;;1.70;99.90;;;;;;4974385;28;20031;-71
2021/12/07 03:29:50;;;;;;;33.20;18.80;;;1.70;99.90;;;;;;4974725;28;20115;-71
2021/12/07 03:32:17;;;;;;;33.13;19.88;;;1.70;99.90;;;;;;4974068;28;20093;-73
2021/12/07 03:34:44;;;;;;;31.98;18.17;;;1.70;99.90;;;;;;4974483;28;20030;-71
2021/12/07 03:37:10;;;;;;;36.20;19.92;;;1.70;99.90;;;;;;4974596;28;20090;-71
2021/12/07 03:39:36;;;;;;;30.92;18.63;;;1.70;99.90;;;;;;4974351;28;20026;-73
2021/12/07 03:42:03;;;;;;;30.98;18.70;;;1.60;99.90;;;;;;4974247;28;20106;-73
2021/12/07 03:44:30;;;;;;;31.17;19.08;;;1.60;99.90;;;;;;4974333;28;20027;-73
2021/12/07 03:46:56;;;;;;;33.50;20.45;;;1.70;99.90;;;;;;4974413;28;20058;-73
2021/12/07 03:49:23;;;;;;;33.55;19.75;;;1.60;99.90;;;;;;4974795;28;20587;-74
2021/12/07 03:51:49;;;;;;;32.83;17.75;;;1.60;99.90;;;;;;4975956;28;20039;-73
2021/12/07 03:54:16;;;;;;;33.10;19.23;;;1.60;99.90;;;;;;4978779;28;20039;-74
2021/12/07 03:56:42;;;;;;;33.67;19.50;;;1.60;99.90;;;;;;4974882;28;20023;-72
2021/12/07 03:59:08;;;;;;;33.20;19.52;;;1.60;99.90;;;;;;4975661;28;20031;-74
2021/12/07 04:01:35;;;;;;;33.63;18.50;;;1.60;99.90;;;;;;4975295;28;20041;-73
2021/12/07 04:04:03;;;;;;;33.95;20.02;;;1.60;99.90;;;;;;4974921;28;20090;-74
2021/12/07 04:06:29;;;;;;;34.60;18.85;;;1.60;99.90;;;;;;4974865;28;20489;-74
2021/12/07 04:08:55;;;;;;;33.17;19.77;;;1.60;99.90;;;;;;4976128;28;20019;-71
2021/12/07 04:11:21;;;;;;;30.77;19.33;;;1.60;99.90;;;;;;4974653;28;20035;-74
2021/12/07 04:13:47;;;;;;;33.15;20.38;;;1.60;99.90;;;;;;4974679;28;20037;-70
2021/12/07 04:16:18;;;;;;;32.30;19.35;;;1.60;99.90;;;;;;4975351;28;20126;-70
2021/12/07 04:18:48;;;;;;;32.97;19.00;;;1.60;99.90;;;;;;4975070;28;20124;-74
2021/12/07 04:21:14;;;;;;;35.72;20.63;;;1.60;99.90;;;;;;4974347;28;20019;-73
2021/12/07 04:23:41;;;;;;;33.80;20.75;;;1.60;99.90;;;;;;4974890;28;20178;-74
2021/12/07 04:26:09;;;;;;;33.85;19.67;;;1.60;99.90;;;;;;4976273;28;20447;-71
2021/12/07 04:28:37;;;;;;;33.65;19.90;;;1.60;99.90;;;;;;4976273;28;20046;-72
2021/12/07 04:31:04;;;;;;;31.27;18.98;;;1.70;99.90;;;;;;4976500;28;20027;-72
2021/12/07 04:33:30;;;;;;;34.72;19.77;;;1.60;99.90;;;;;;4976239;28;20121;-71
2021/12/07 04:35:56;;;;;;;34.72;19.98;;;1.60;99.90;;;;;;4975846;28;20509;-73
2021/12/07 04:38:22;;;;;;;34.25;20.00;;;1.60;99.90;;;;;;4975974;28;20030;-71
2021/12/07 04:40:48;;;;;;;34.70;20.83;;;1.70;99.90;;;;;;4975850;28;20393;-71
2021/12/07 04:43:14;;;;;;;44.33;25.48;;;1.70;99.90;;;;;;4976081;28;20553;-74
2021/12/07 04:59:06;;;;;;;31.63;19.10;;;1.60;99.90;;;;;;4975746;28;20031;-71
2021/12/07 05:01:33;;;;;;;32.95;19.77;;;1.60;99.90;;;;;;4974910;28;20027;-72
2021/12/07 05:04:05;;;;;;;41.53;21.38;;;1.60;99.90;;;;;;4975020;28;20385;-73
2021/12/07 05:06:33;;;;;;;33.47;19.38;;;1.60;99.90;;;;;;4974586;28;20582;-74
2021/12/07 05:09:08;;;;;;;31.17;18.55;;;1.60;99.90;;;;;;4974121;28;20031;-74
2021/12/07 05:12:04;;;;;;;39.92;21.60;;;1.60;99.90;;;;;;4973962;28;20465;-74
2021/12/07 05:14:33;;;;;;;32.40;19.48;;;1.50;99.90;;;;;;4974160;28;20520;-75
2021/12/07 05:17:26;;;;;;;35.35;20.98;;;1.60;99.90;;;;;;4974431;28;20019;-72
2021/12/07 05:38:57;;;;;;;43.40;23.70;;;1.50;99.90;;;;;;4955049;29;20035;-73
2021/12/07 05:41:24;;;;;;;41.92;25.30;;;1.60;99.90;;;;;;4954933;28;20025;-72
2021/12/07 05:43:50;;;;;;;41.92;25.17;;;1.50;99.90;;;;;;4955946;28;20062;-70
2021/12/07 05:46:16;;;;;;;47.30;27.83;;;1.60;99.90;;;;;;4954963;28;20030;-71
2021/12/07 05:48:42;;;;;;;46.08;29.05;;;1.60;99.90;;;;;;4954664;28;20035;-71
2021/12/07 05:51:08;;;;;;;53.97;34.67;;;1.60;99.90;;;;;;4954689;28;20027;-72
2021/12/07 05:53:35;;;;;;;49.63;28.65;;;1.60;99.90;;;;;;4967440;28;20051;-71
2021/12/07 05:56:02;;;;;;;44.17;26.30;;;1.60;99.90;;;;;;4974119;28;20085;-71
2021/12/07 05:58:28;;;;;;;51.60;30.40;;;1.60;99.90;;;;;;4973637;28;20485;-72
2021/12/07 06:00:57;;;;;;;45.25;28.50;;;1.60;99.90;;;;;;4974326;28;20035;-71
2021/12/07 06:03:25;;;;;;;42.88;26.02;;;1.60;99.90;;;;;;4974089;28;20038;-71
2021/12/07 06:05:53;;;;;;;41.70;24.88;;;1.60;99.90;;;;;;4973805;28;20062;-71
2021/12/07 06:08:19;;;;;;;44.00;25.70;;;1.60;99.90;;;;;;4973781;28;20035;-71
2021/12/07 06:10:45;;;;;;;40.70;26.42;;;1.70;99.90;;;;;;4973935;28;20027;-70
2021/12/07 06:13:11;;;;;;;43.90;26.17;;;1.70;99.90;;;;;;4973666;28;20536;-72
2021/12/07 06:15:39;;;;;;;44.28;26.88;;;1.60;99.90;;;;;;4975488;28;20023;-71
2021/12/07 06:18:05;;;;;;;47.28;27.70;;;1.60;99.90;;;;;;4974154;28;20160;-72
2021/12/07 06:20:31;;;;;;;43.30;28.30;;;1.60;99.90;;;;;;4974013;28;20105;-72
2021/12/07 06:22:57;;;;;;;47.80;29.15;;;1.60;99.90;;;;;;4973782;28;20027;-71
2021/12/07 06:25:23;;;;;;;44.63;27.35;;;1.60;99.90;;;;;;4974026;28;20038;-72
2021/12/07 06:27:49;;;;;;;40.30;25.92;;;1.60;99.90;;;;;;4973693;28;20026;-72
2021/12/07 06:30:16;;;;;;;43.90;26.92;;;1.60;99.90;;;;;;4958810;28;20035;-72
2021/12/07 06:32:42;;;;;;;44.45;26.27;;;1.60;99.90;;;;;;4953990;28;20626;-71
2021/12/07 06:35:09;;;;;;;41.88;26.15;;;1.50;99.90;;;;;;4966023;28;20049;-71
2021/12/07 06:37:35;;;;;;;42.58;27.25;;;1.60;99.90;;;;;;4954747;28;20031;-71
2021/12/07 06:40:01;;;;;;;47.67;28.48;;;1.60;99.90;;;;;;4954602;28;20027;-71
2021/12/07 06:42:26;;;;;;;44.30;29.77;;;1.50;99.90;;;;;;4963680;28;20027;-71
2021/12/07 06:44:52;;;;;;;46.03;28.90;;;1.50;99.90;;;;;;4973642;28;20098;-71
2021/12/07 06:47:18;;;;;;;45.38;30.40;;;1.50;99.90;;;;;;4973810;28;20045;-72
2021/12/07 06:49:45;;;;;;;47.00;30.92;;;1.50;99.90;;;;;;4973494;28;20098;-72
2021/12/07 06:52:12;;;;;;;46.00;29.85;;;1.50;99.90;;;;;;4973195;28;20050;-71
2021/12/07 06:54:38;;;;;;;50.63;31.23;;;1.50;99.90;;;;;;4973757;28;20110;-70
2021/12/07 06:57:04;;;;;;;46.00;29.23;;;1.50;99.90;;;;;;4973648;28;20110;-71
2021/12/07 06:59:30;;;;;;;46.80;30.92;;;1.50;99.90;;;;;;4973007;28;20027;-72
2021/12/07 07:01:56;;;;;;;49.17;28.60;;;1.50;99.90;;;;;;4973359;28;20031;-71
2021/12/07 07:04:22;;;;;;;46.33;27.83;;;1.50;99.90;;;;;;4973117;28;20516;-71
2021/12/07 07:06:50;;;;;;;46.53;27.42;;;1.40;99.90;;;;;;4977163;28;20539;-71
2021/12/07 07:09:17;;;;;;;41.95;27.67;;;1.50;99.90;;;;;;4985558;28;20417;-71
2021/12/07 07:11:43;;;;;;;45.60;29.77;;;1.50;99.90;;;;;;4972617;28;20049;-71
2021/12/07 07:14:09;;;;;;;49.30;31.10;;;1.50;99.90;;;;;;4971771;28;20072;-71
2021/12/07 07:16:35;;;;;;;52.03;31.90;;;1.50;99.90;;;;;;4968689;28;20042;-71
2021/12/07 07:19:01;;;;;;;45.05;27.35;;;1.50;99.90;;;;;;4973576;28;20023;-71
2021/12/07 07:21:28;;;;;;;46.25;28.27;;;1.50;99.90;;;;;;4973036;28;20027;-71
2021/12/07 07:23:54;;;;;;;47.03;30.50;;;1.50;99.90;;;;;;4973634;28;20077;-72
2021/12/07 07:26:20;;;;;;;48.20;29.67;;;1.40;99.90;;;;;;4973224;28;20469;-71
2021/12/07 07:28:46;;;;;;;42.63;28.25;;;1.50;99.90;;;;;;4973317;28;20039;-70
2021/12/07 07:31:13;;;;;;;49.67;31.17;;;1.50;99.90;;;;;;4972815;28;20023;-69
2021/12/07 07:33:39;;;;;;;47.42;29.30;;;1.50;99.90;;;;;;4972984;28;20031;-71
2021/12/07 07:36:05;;;;;;;48.35;29.27;;;1.50;99.90;;;;;;4973328;28;20023;-71
2021/12/07 07:38:32;;;;;;;46.05;29.23;;;1.50;99.90;;;;;;4973541;28;20409;-71
2021/12/07 07:40:58;;;;;;;46.75;28.90;;;1.50;99.90;;;;;;4972780;28;20019;-71
2021/12/07 07:43:25;;;;;;;45.08;29.05;;;1.50;99.90;;;;;;4975247;28;20390;-71
2021/12/07 07:46:11;;;;;;;46.33;30.60;;;1.50;99.90;;;;;;4969106;28;20027;-71
2021/12/07 07:48:37;;;;;;;48.65;31.92;;;1.50;99.90;;;;;;4972796;28;20053;-71
2021/12/07 07:51:04;;;;;;;49.65;31.38;;;1.50;99.90;;;;;;4976179;28;20037;-71
2021/12/07 07:53:29;;;;;;;46.92;30.75;;;1.50;99.90;;;;;;4975107;28;20054;-70
2021/12/07 07:55:59;;;;;;;56.20;35.75;;;1.40;99.90;;;;;;4974959;28;20030;-72
2021/12/07 07:58:25;;;;;;;54.55;34.38;;;1.40;99.90;;;;;;4976460;28;20023;-72
2021/12/07 08:00:51;;;;;;;59.92;35.50;;;1.50;99.90;;;;;;4975597;28;20030;-72
2021/12/07 08:03:17;;;;;;;57.30;35.10;;;1.50;99.90;;;;;;4967715;28;20115;-72
2021/12/07 08:05:43;;;;;;;54.38;35.83;;;1.50;99.90;;;;;;4975379;28;20103;-70
2021/12/07 08:08:12;;;;;;;58.35;34.60;;;1.50;99.90;;;;;;4987154;28;20038;-71
2021/12/07 08:10:38;;;;;;;60.83;37.42;;;1.50;99.90;;;;;;4972835;28;20026;-71
2021/12/07 08:13:06;;;;;;;53.58;35.78;;;1.50;99.90;;;;;;4973011;28;20034;-72
2021/12/07 08:15:36;;;;;;;53.55;35.30;;;1.50;99.90;;;;;;4974337;28;20023;-71
2021/12/07 08:18:03;;;;;;;52.35;34.33;;;1.60;99.90;;;;;;4977145;28;20109;-71
2021/12/07 08:20:30;;;;;;;60.00;36.42;;;1.50;99.90;;;;;;4982317;28;20158;-70
2021/12/07 08:22:58;;;;;;;55.55;38.05;;;1.60;99.90;;;;;;4972837;28;20112;-72
2021/12/07 08:25:24;;;;;;;56.13;35.60;;;1.60;99.90;;;;;;4973843;28;20397;-71
2021/12/07 08:27:50;;;;;;;56.13;36.65;;;1.60;99.90;;;;;;4969159;28;20026;-72
2021/12/07 08:30:17;;;;;;;53.75;34.67;;;1.70;99.90;;;;;;4990896;28;20039;-70
2021/12/07 08:32:45;;;;;;;53.35;34.15;;;1.60;99.90;;;;;;4973492;28;20038;-72
2021/12/07 08:35:13;;;;;;;48.63;30.42;;;1.60;99.90;;;;;;4978024;28;20516;-72
2021/12/07 08:37:39;;;;;;;49.10;32.13;;;1.60;99.90;;;;;;4976039;28;20045;-70
2021/12/07 08:40:06;;;;;;;57.92;37.45;;;1.60;99.90;;;;;;4977755;28;20255;-72
2021/12/07 08:42:32;;;;;;;51.35;32.33;;;1.60;99.90;;;;;;4990749;28;20027;-72
2021/12/07 08:44:58;;;;;;;51.67;32.85;;;1.70;99.90;;;;;;4979544;28;20022;-72
2021/12/07 08:47:23;;;;;;;50.15;32.13;;;1.70;99.90;;;;;;4977132;28;20035;-72
2021/12/07 08:49:50;;;;;;;49.95;32.40;;;1.70;99.90;;;;;;4984383;28;20027;-72
2021/12/07 08:52:17;;;;;;;52.65;32.92;;;1.80;99.90;;;;;;4974118;28;20054;-72
2021/12/07 08:59:52;;;;;;;50.13;32.40;;;1.70;99.90;;;;;;4975596;28;20035;-72
2021/12/07 09:02:23;;;;;;;53.85;31.80;;;1.70;99.90;;;;;;4971074;28;20038;-71
2021/12/07 09:04:53;;;;;;;53.42;30.63;;;1.70;99.90;;;;;;4974338;28;20027;-73
2021/12/07 09:07:20;;;;;;;49.65;30.80;;;1.70;99.90;;;;;;4975259;28;20476;-73
2021/12/07 09:09:46;;;;;;;49.33;29.67;;;1.70;99.90;;;;;;4975211;28;20026;-73
2021/12/07 09:12:13;;;;;;;49.20;31.48;;;1.70;99.90;;;;;;4975015;28;20039;-73
2021/12/07 09:14:41;;;;;;;51.95;32.20;;;1.70;99.90;;;;;;4975002;28;20077;-72
2021/12/07 09:17:07;;;;;;;48.78;31.00;;;1.70;99.90;;;;;;4975431;28;20031;-73
2021/12/07 09:19:34;;;;;;;56.10;34.05;;;1.70;99.90;;;;;;4973210;28;20027;-72
2021/12/07 09:22:00;;;;;;;50.17;30.27;;;1.70;99.90;;;;;;4968985;28;20031;-72
2021/12/07 09:24:27;;;;;;;51.05;32.00;;;1.70;99.90;;;;;;4973319;28;20062;-73
2021/12/07 09:26:53;;;;;;;44.53;27.75;;;1.70;99.90;;;;;;4974916;28;20038;-72
2021/12/07 09:29:20;;;;;;;48.85;30.75;;;1.60;99.90;;;;;;4974850;28;20031;-73
2021/12/07 09:31:46;;;;;;;49.85;30.75;;;1.60;99.90;;;;;;4974462;28;20038;-73
2021/12/07 09:34:12;;;;;;;45.17;27.55;;;1.60;99.90;;;;;;4972889;28;20035;-72
2021/12/07 09:36:45;;;;;;;45.28;29.95;;;1.60;99.90;;;;;;4971835;28;20039;-71
2021/12/07 09:39:13;;;;;;;47.25;30.25;;;1.70;99.90;;;;;;4970209;28;20031;-72
2021/12/07 09:41:39;;;;;;;43.90;28.08;;;1.70;99.90;;;;;;4972744;28;20033;-71
2021/12/07 09:44:07;;;;;;;42.50;26.90;;;1.70;99.90;;;;;;4972295;28;20035;-73
2021/12/07 09:46:34;;;;;;;45.17;27.10;;;1.70;99.90;;;;;;4973331;28;20022;-73
2021/12/07 09:49:00;;;;;;;42.58;26.23;;;1.70;99.90;;;;;;4974117;28;20485;-74
2021/12/07 09:51:27;;;;;;;47.63;28.98;;;1.70;99.90;;;;;;4974505;28;20058;-72
2021/12/07 09:53:55;;;;;;;44.45;27.05;;;1.70;99.90;;;;;;4974512;28;20093;-73
2021/12/07 09:56:21;;;;;;;40.65;25.25;;;1.80;99.90;;;;;;4974625;28;20055;-73
2021/12/07 09:58:49;;;;;;;44.97;27.58;;;1.80;99.90;;;;;;4974498;28;20034;-72
2021/12/07 10:01:16;;;;;;;38.95;24.25;;;1.80;99.90;;;;;;4974117;28;20022;-73
2021/12/07 10:03:43;;;;;;;39.88;25.23;;;1.80;99.90;;;;;;4974353;28;20359;-73
2021/12/07 10:06:09;;;;;;;46.50;27.02;;;1.80;99.90;;;;;;4974154;28;20086;-73
2021/12/07 10:08:36;;;;;;;44.13;27.60;;;1.80;99.90;;;;;;4974161;28;20117;-73
2021/12/07 10:11:04;;;;;;;44.03;26.95;;;1.80;99.90;;;;;;4974509;28;20057;-73
2021/12/07 10:13:31;;;;;;;41.63;25.48;;;1.90;99.90;;;;;;4974329;28;20093;-71
2021/12/07 10:16:01;;;;;;;41.08;25.02;;;1.90;99.90;;;;;;4974652;28;20050;-73
2021/12/07 10:18:31;;;;;;;38.60;25.48;;;1.90;99.90;;;;;;4974314;28;20452;-74
2021/12/07 10:21:03;;;;;;;42.40;26.00;;;1.80;99.90;;;;;;4973880;28;20023;-73
2021/12/07 10:23:40;;;;;;;41.45;26.08;;;1.90;99.90;;;;;;4974358;28;20409;-74
2021/12/07 10:26:16;;;;;;;40.80;26.25;;;1.90;99.90;;;;;;4974424;28;20050;-74
2021/12/07 10:29:13;;;;;;;39.55;25.55;;;2.00;99.90;;;;;;4973406;28;20023;-73
2021/12/07 10:31:45;;;;;;;43.90;26.60;;;2.00;99.90;;;;;;4972952;28;20521;-71
2021/12/07 10:34:24;;;;;;;39.95;24.35;;;2.00;99.90;;;;;;4973682;28;20082;-73
2021/12/07 10:36:55;;;;;;;40.25;24.92;;;2.00;99.90;;;;;;4973940;28;20026;-73
2021/12/07 10:39:26;;;;;;;45.50;25.05;;;2.00;99.90;;;;;;4974056;28;20058;-73
2021/12/07 10:42:00;;;;;;;39.65;24.63;;;2.00;99.90;;;;;;4974355;28;20465;-74
2021/12/07 10:44:30;;;;;;;43.22;24.80;;;2.00;99.90;;;;;;4973578;28;20061;-74
2021/12/07 10:47:00;;;;;;;39.08;25.23;;;2.00;99.90;;;;;;4972984;28;20030;-73
2021/12/07 10:49:32;;;;;;;45.70;27.65;;;2.00;99.90;;;;;;4973891;28;20030;-73
2021/12/07 10:52:00;;;;;;;47.40;28.67;;;2.00;99.90;;;;;;4973841;28;20035;-70
2021/12/07 10:54:28;;;;;;;46.88;28.77;;;2.10;99.90;;;;;;4974040;28;20039;-72
2021/12/07 10:56:54;;;;;;;41.53;26.15;;;2.10;99.90;;;;;;4972765;28;20089;-71
2021/12/07 10:59:20;;;;;;;42.83;26.67;;;2.10;99.90;;;;;;4973832;28;20444;-71
2021/12/07 11:01:51;;;;;;;42.15;29.55;;;2.10;99.90;;;;;;4973311;28;20035;-74
2021/12/07 11:04:35;;;;;;;45.70;29.52;;;2.10;99.90;;;;;;4973568;28;20030;-73
2021/12/07 11:07:13;;;;;;;44.08;26.95;;;2.20;99.90;;;;;;4973778;28;20035;-74
2021/12/07 11:09:48;;;;;;;42.75;26.75;;;2.20;99.90;;;;;;4972696;28;20061;-74
2021/12/07 11:12:18;;;;;;;44.42;28.83;;;2.20;99.90;;;;;;4973393;28;20039;-73
2021/12/07 11:14:50;;;;;;;47.88;27.35;;;2.20;99.90;;;;;;4973468;28;20037;-73
2021/12/07 11:17:30;;;;;;;39.42;24.85;;;2.30;99.90;;;;;;4975792;28;20380;-73
2021/12/07 11:19:57;;;;;;;43.17;27.42;;;2.30;99.90;;;;;;4977667;28;20089;-74
2021/12/07 11:22:27;;;;;;;46.47;30.02;;;2.30;99.90;;;;;;4977901;28;20053;-72
2021/12/07 11:24:55;;;;;;;45.63;29.15;;;2.40;99.90;;;;;;4977451;28;20385;-74
2021/12/07 11:30:15;;;;;;;44.00;25.17;;;2.50;99.90;;;;;;4977228;28;20034;-72
2021/12/07 11:32:44;;;;;;;47.03;26.20;;;2.50;99.90;;;;;;4976772;28;20058;-70
2021/12/07 11:35:14;;;;;;;43.65;26.20;;;2.50;99.90;;;;;;4977165;28;20102;-71
2021/12/07 11:37:41;;;;;;;46.05;25.83;;;2.60;99.90;;;;;;4977035;28;20389;-71
2021/12/07 11:40:09;;;;;;;48.75;26.58;;;2.60;99.90;;;;;;4976870;28;20062;-71
2021/12/07 11:42:39;;;;;;;41.90;24.35;;;2.60;99.90;;;;;;4976633;28;20033;-73
2021/12/07 11:45:14;;;;;;;42.78;26.08;;;2.70;99.90;;;;;;4976854;28;20023;-74
2021/12/07 11:47:54;;;;;;;37.50;23.73;;;2.70;99.90;;;;;;4976895;28;20026;-74
2021/12/07 11:50:19;;;;;;;38.72;23.27;;;2.70;99.90;;;;;;4976994;28;20023;-74
2021/12/07 11:52:48;;;;;;;42.67;23.83;;;2.80;99.90;;;;;;4976561;28;20074;-72
2021/12/07 11:55:14;;;;;;;39.08;23.05;;;2.80;99.90;;;;;;4976677;28;20031;-74
2021/12/07 11:57:41;;;;;;;36.58;22.27;;;2.80;99.90;;;;;;4976586;28;20035;-73
2021/12/07 12:00:12;;;;;;;37.22;21.65;;;2.80;99.90;;;;;;4976597;28;20531;-73
2021/12/07 12:02:39;;;;;;;41.60;25.85;;;2.90;99.90;;;;;;4976637;28;20109;-71
2021/12/07 12:05:05;;;;;;;38.13;23.15;;;2.90;99.90;;;;;;4976788;28;20023;-71
2021/12/07 12:07:31;;;;;;;41.22;24.23;;;3.00;99.90;;;;;;4976281;28;20481;-72
2021/12/07 12:09:57;;;;;;;39.53;21.83;;;3.00;99.90;;;;;;4976722;28;20023;-72
2021/12/07 12:12:49;;;;;;;39.13;22.52;;;2.90;99.90;;;;;;4976327;28;20038;-72
2021/12/07 12:15:36;;;;;;;35.63;21.83;;;3.00;99.90;;;;;;4976523;28;20106;-72
2021/12/07 12:18:14;;;;;;;53.35;32.17;;;3.00;99.90;;;;;;4976386;28;20030;-71
2021/12/07 12:20:57;;;;;;;31.88;20.17;;;3.00;99.90;;;;;;4976535;28;20053;-72
2021/12/07 12:23:33;;;;;;;32.83;21.23;;;3.00;99.90;;;;;;4976319;28;20035;-70
2021/12/07 12:26:10;;;;;;;37.53;20.92;;;3.00;99.90;;;;;;4976472;28;20042;-72
2021/12/07 12:28:49;;;;;;;38.67;22.58;;;3.00;99.90;;;;;;4975568;28;20037;-72
2021/12/07 12:31:17;;;;;;;42.20;21.80;;;3.00;99.90;;;;;;4976238;28;20042;-72
2021/12/07 12:33:55;;;;;;;38.45;20.92;;;3.00;99.90;;;;;;4976003;28;20030;-72
2021/12/07 12:36:23;;;;;;;34.10;20.83;;;3.00;99.90;;;;;;4976092;28;20484;-72
2021/12/07 12:39:03;;;;;;;35.95;20.70;;;3.00;99.90;;;;;;4975954;28;20023;-72
2021/12/07 12:41:29;;;;;;;30.83;20.00;;;3.10;99.90;;;;;;4974917;28;20026;-72
2021/12/07 12:44:06;;;;;;;36.45;21.42;;;3.10;99.90;;;;;;4975969;28;20026;-72
2021/12/07 12:46:34;;;;;;;33.22;20.95;;;3.10;99.90;;;;;;4975985;28;20031;-72
2021/12/07 12:49:07;;;;;;;29.10;16.52;;;3.10;99.90;;;;;;4975728;28;20125;-72
2021/12/07 12:51:51;;;;;;;32.22;19.67;;;3.10;99.90;;;;;;4975248;28;20039;-73
2021/12/07 12:54:17;;;;;;;;;;;3.10;99.90;;;;;;4976156;28;20039;-72
2021/12/07 12:56:43;;;;;;;33.90;18.58;;;3.10;99.90;;;;;;4975785;28;19910;-72
2021/12/07 12:59:10;;;;;;;31.00;17.40;;;3.00;99.90;;;;;;4976178;28;20035;-69
2021/12/07 13:01:44;;;;;;;33.53;18.20;;;3.00;99.90;;;;;;4975583;28;20058;-73
2021/12/07 13:04:10;;;;;;;29.55;18.90;;;3.00;99.90;;;;;;4975805;28;20029;-73
2021/12/07 13:09:45;;;;;;;37.00;21.40;;;3.10;99.90;;;;;;4972853;28;20090;-73
2021/12/07 13:12:13;;;;;;;30.20;19.23;;;3.10;99.90;;;;;;4973344;28;20035;-72
2021/12/07 13:15:12;;;;;;;32.72;19.33;;;3.00;99.90;;;;;;4969127;28;20777;-72
2021/12/07 13:17:43;;;;;;;30.30;18.35;;;3.00;99.90;;;;;;4907963;29;20111;-73
2021/12/07 13:20:23;;;;;;;32.90;19.15;;;3.00;99.90;;;;;;4910604;29;20064;-72
2021/12/07 13:23:01;;;;;;;35.83;19.17;;;3.00;99.90;;;;;;4912695;29;20043;-73
2021/12/07 13:25:31;;;;;;;28.83;17.23;;;3.00;99.90;;;;;;4915292;29;20086;-73
2021/12/07 13:28:04;;;;;;;34.65;19.40;;;3.00;99.90;;;;;;4914420;29;20064;-72
2021/12/07 13:30:50;;;;;;;29.90;18.45;;;3.00;99.90;;;;;;4914481;29;20047;-73
2021/12/07 13:33:38;;;;;;;29.90;18.05;;;3.00;99.90;;;;;;4914455;29;20530;-72
2021/12/07 13:36:42;;;;;;;32.05;17.55;;;3.00;99.90;;;;;;4914752;29;20558;-72
2021/12/07 13:39:29;;;;;;;29.75;16.60;;;2.90;99.90;;;;;;4913252;29;20048;-72
2021/12/07 13:42:02;;;;;;;32.25;17.90;;;3.00;99.90;;;;;;4914704;29;20024;-74
2021/12/07 13:44:31;;;;;;;31.67;18.42;;;2.90;99.90;;;;;;4914457;29;20032;-72
2021/12/07 13:47:03;;;;;;;31.08;17.80;;;3.00;99.90;;;;;;4930962;29;20075;-74
2021/12/07 13:49:32;;;;;;;29.67;18.35;;;3.00;99.90;;;;;;4933366;29;20063;-72
2021/12/07 13:51:58;;;;;;;27.00;16.67;;;3.00;99.90;;;;;;4932368;29;20035;-72
2021/12/07 13:54:24;;;;;;;26.08;16.42;;;3.00;99.90;;;;;;4972833;28;20042;-72
2021/12/07 13:56:52;;;;;;;25.38;15.07;;;2.90;99.90;;;;;;4973304;28;20030;-72
2021/12/07 13:59:22;;;;;;;28.85;17.70;;;2.90;99.90;;;;;;4971173;28;20034;-72
2021/12/07 14:01:55;;;;;;;29.63;17.88;;;2.90;99.90;;;;;;4973618;28;20378;-73
2021/12/07 14:04:28;;;;;;;31.73;18.67;;;3.00;99.90;;;;;;4973551;28;20026;-73
2021/12/07 14:06:54;;;;;;;35.17;20.77;;;3.00;99.90;;;;;;4973579;28;20038;-73
2021/12/07 14:09:21;;;;;;;37.03;22.05;;;2.90;99.90;;;;;;4973524;28;20041;-72
2021/12/07 14:11:52;;;;;;;32.80;20.83;;;3.00;99.90;;;;;;4973451;28;20054;-73
2021/12/07 14:14:20;;;;;;;35.05;19.10;;;2.90;99.90;;;;;;4973308;28;20113;-71
2021/12/07 14:16:46;;;;;;;31.98;19.85;;;2.90;99.90;;;;;;4973683;28;20030;-73
2021/12/07 14:19:12;;;;;;;33.38;18.98;;;3.00;99.90;;;;;;4973277;28;20093;-71
2021/12/07 14:21:38;;;;;;;37.80;21.77;;;2.90;99.90;;;;;;4972380;28;20034;-71
2021/12/07 14:24:09;;;;;;;34.53;20.98;;;3.00;99.90;;;;;;4973373;28;20034;-73
2021/12/07 14:26:37;;;;;;;38.55;21.65;;;3.00;99.90;;;;;;4973759;28;20030;-73
2021/12/07 14:29:22;;;;;;;34.90;19.95;;;2.90;99.90;;;;;;4973868;28;20022;-72
2021/12/07 14:31:58;;;;;;;33.15;19.42;;;2.90;99.90;;;;;;4973747;28;20026;-73
2021/12/07 14:34:30;;;;;;;37.55;22.90;;;2.90;99.90;;;;;;4973740;28;20035;-73
2021/12/07 14:37:02;;;;;;;38.38;23.65;;;2.90;99.90;;;;;;4973899;28;20023;-73
2021/12/07 14:39:32;;;;;;;37.80;22.60;;;2.90;99.90;;;;;;4974186;28;20027;-73